Portada
METAR-TAF:

METAR-TAF

Aeropuertos :

Aeropuerto de Alghero-Fertilia

Alguer, Italia

latitud: 40-38N, longitud: 008-17E, altitud: 23 m

Observación

El informe se hizo hace 31 minutos, a las 07:20 UTC
Viento 5 kt del norte-noreste
Temperatura 12°C
Humedad 76%
Presión 1013 hPa
Visibilidad 10 km o más
sin nubes por debajo de 1500 m y sin presencia de cumulonimbus.

METAR: LIEA 160720Z 03005KT CAVOK 12/08 Q1013

Hora: 09:51 (07:51 UTC)

Pronóstico

El informe se hizo hace 2 horas y 51 minutos, a las 05:00 UTC
Pronóstico válido del 16 a las 06 UTC al 17 a las 06 UTC
Viento 15 kt del noreste
Visibilidad 10 km o más
Escasas nubes a una altura de 3000 ft
Evolucionando progresivamente
del 16 a las 21 UTC al 16 a las 23 UTC
Viento 5 kt con dirección variable
Temporalmente
del 17 a las 00 UTC al 17 a las 06 UTC
tormenta, lluvia

TAF: LIEA 160500Z 1606/1706 04015KT 9999 FEW030 BECMG 1621/1623 VRB05KT TEMPO 1700/1706 TSRA

Observaciones y pronósticos meteorológicos de más de 4000 aeropuertos (mensajes METAR y TAF).

Los puntos amarillos y rojos representan las estaciones disponibles.

Ponga el ratón en el punto deseado para ver el nombre de la estación.

Haga clic para ver las observaciones y los pronósticos meteorológicos.

Para cambiar el mapa : haga clic en los botones verdes con una cruz de color negro para hacer un zoom, en el botón verde con un guión para alejar o en las flechas verdes para mapas adyacentes.


METAR-TAF: